GCFV/FUE METAR and TAF weather

Enter ICAO airport designator
Station Type Date Time Source
GCFV METAR 2020/09/26 12:00 UTC NOAA

GCFV 261200Z 05016KT 9999 FEW020 26/21 Q1021


Station Type Date Time Source
GCFV Decoded METAR 2020/09/26 12:00 UTC NOAA

Fuerteventura / Aeropuerto, Spain (GCFV) 28-27N 013-52W 30M
Sep 26, 2020 - 08:00 AM EDT / 2020.09.26 1200 UTC
Wind: from the NE (050 degrees) at 18 MPH (16 KT):0
Visibility: greater than 7 mile(s):0
Sky conditions: mostly clear
Temperature: 78 F (26 C)
Dew Point: 69 F (21 C)
Relative Humidity: 73%
Pressure (altimeter): 30.15 in. Hg (1021 hPa)
ob: GCFV 261200Z 05016KT 9999 FEW020 26/21 Q1021
cycle: 12

Station Type Date Time Source
GCFV TAF 2020/09/26 09:28 UTC NOAA

TAF GCFV 260800Z 2609/2709 04019KT 9999 FEW015 TX27/2614Z TN21/2706Z PROB30
TEMPO 2610/2617 04017G27KT PROB40
TEMPO 2622/2708 35008KT

Example: see airport list